sensor_id;sensor_type;location;lat;lon;timestamp;P1;durP1;ratioP1;P2;durP2;ratioP2
5052;SDS011;2545;50.892;5.740;2023-09-12T00:00:53;22.20;;;13.20;;
5052;SDS011;2545;50.892;5.740;2023-09-12T00:03:19;22.90;;;13.90;;
5052;SDS011;2545;50.892;5.740;2023-09-12T00:08:18;17.60;;;13.40;;
5052;SDS011;2545;50.892;5.740;2023-09-12T00:10:43;16.57;;;13.17;;
5052;SDS011;2545;50.892;5.740;2023-09-12T00:13:08;16.63;;;12.57;;
5052;SDS011;2545;50.892;5.740;2023-09-12T00:15:34;23.53;;;12.93;;
5052;SDS011;2545;50.892;5.740;2023-09-12T00:17:59;20.70;;;12.70;;
5052;SDS011;2545;50.892;5.740;2023-09-12T00:20:24;26.43;;;12.57;;
5052;SDS011;2545;50.892;5.740;2023-09-12T00:22:50;18.83;;;13.00;;
5052;SDS011;2545;50.892;5.740;2023-09-12T00:25:16;19.47;;;12.83;;
5052;SDS011;2545;50.892;5.740;2023-09-12T00:27:41;22.03;;;13.10;;
5052;SDS011;2545;50.892;5.740;2023-09-12T00:30:06;16.00;;;13.13;;
5052;SDS011;2545;50.892;5.740;2023-09-12T00:32:32;23.67;;;13.80;;
5052;SDS011;2545;50.892;5.740;2023-09-12T00:34:57;16.93;;;13.47;;
5052;SDS011;2545;50.892;5.740;2023-09-12T00:37:23;21.90;;;14.10;;
5052;SDS011;2545;50.892;5.740;2023-09-12T00:39:48;21.03;;;14.33;;
5052;SDS011;2545;50.892;5.740;2023-09-12T00:42:13;20.77;;;14.20;;
5052;SDS011;2545;50.892;5.740;2023-09-12T00:44:38;20.40;;;14.73;;
5052;SDS011;2545;50.892;5.740;2023-09-12T00:47:04;18.60;;;14.20;;
5052;SDS011;2545;50.892;5.740;2023-09-12T00:49:30;22.83;;;15.43;;
5052;SDS011;2545;50.892;5.740;2023-09-12T00:51:56;19.73;;;14.10;;
5052;SDS011;2545;50.892;5.740;2023-09-12T00:54:23;24.63;;;15.93;;
5052;SDS011;2545;50.892;5.740;2023-09-12T00:56:48;22.27;;;15.50;;
5052;SDS011;2545;50.892;5.740;2023-09-12T00:59:15;23.33;;;15.00;;
5052;SDS011;2545;50.892;5.740;2023-09-12T01:01:42;18.90;;;13.53;;
5052;SDS011;2545;50.892;5.740;2023-09-12T01:04:08;26.30;;;14.90;;
5052;SDS011;2545;50.892;5.740;2023-09-12T01:06:34;17.57;;;13.70;;
5052;SDS011;2545;50.892;5.740;2023-09-12T01:09:00;21.23;;;14.90;;
5052;SDS011;2545;50.892;5.740;2023-09-12T01:11:25;22.67;;;14.40;;
5052;SDS011;2545;50.892;5.740;2023-09-12T01:13:51;18.70;;;13.10;;
5052;SDS011;2545;50.892;5.740;2023-09-12T01:16:17;20.13;;;14.07;;
5052;SDS011;2545;50.892;5.740;2023-09-12T01:18:42;17.50;;;13.00;;
5052;SDS011;2545;50.892;5.740;2023-09-12T01:23:51;18.93;;;13.50;;
5052;SDS011;2545;50.892;5.740;2023-09-12T01:26:29;18.83;;;11.80;;
5052;SDS011;2545;50.892;5.740;2023-09-12T01:29:05;23.80;;;14.70;;
5052;SDS011;2545;50.892;5.740;2023-09-12T01:31:32;19.90;;;12.97;;
5052;SDS011;2545;50.892;5.740;2023-09-12T01:34:10;18.40;;;13.50;;
5052;SDS011;2545;50.892;5.740;2023-09-12T01:36:37;19.70;;;12.90;;
5052;SDS011;2545;50.892;5.740;2023-09-12T01:39:02;16.73;;;13.07;;
5052;SDS011;2545;50.892;5.740;2023-09-12T01:41:28;19.17;;;13.00;;
5052;SDS011;2545;50.892;5.740;2023-09-12T01:43:56;18.93;;;13.13;;
5052;SDS011;2545;50.892;5.740;2023-09-12T01:46:24;22.93;;;14.07;;
5052;SDS011;2545;50.892;5.740;2023-09-12T01:48:51;17.00;;;13.33;;
5052;SDS011;2545;50.892;5.740;2023-09-12T01:51:19;16.10;;;11.97;;
5052;SDS011;2545;50.892;5.740;2023-09-12T01:53:45;18.40;;;13.80;;
5052;SDS011;2545;50.892;5.740;2023-09-12T01:56:12;17.97;;;12.17;;
5052;SDS011;2545;50.892;5.740;2023-09-12T01:58:38;16.27;;;12.13;;
5052;SDS011;2545;50.892;5.740;2023-09-12T02:01:03;19.63;;;12.77;;
5052;SDS011;2545;50.892;5.740;2023-09-12T02:03:29;21.60;;;11.67;;
5052;SDS011;2545;50.892;5.740;2023-09-12T02:05:54;19.30;;;12.93;;
5052;SDS011;2545;50.892;5.740;2023-09-12T02:08:19;17.43;;;12.10;;
5052;SDS011;2545;50.892;5.740;2023-09-12T02:10:45;19.13;;;11.30;;
5052;SDS011;2545;50.892;5.740;2023-09-12T02:13:10;16.50;;;11.40;;
5052;SDS011;2545;50.892;5.740;2023-09-12T02:15:35;25.13;;;12.23;;
5052;SDS011;2545;50.892;5.740;2023-09-12T02:18:01;15.53;;;12.13;;
5052;SDS011;2545;50.892;5.740;2023-09-12T02:20:26;19.07;;;10.83;;
5052;SDS011;2545;50.892;5.740;2023-09-12T02:22:51;19.20;;;11.60;;
5052;SDS011;2545;50.892;5.740;2023-09-12T02:25:17;19.27;;;12.10;;
5052;SDS011;2545;50.892;5.740;2023-09-12T02:27:42;18.93;;;11.20;;
5052;SDS011;2545;50.892;5.740;2023-09-12T02:30:08;21.83;;;12.20;;
5052;SDS011;2545;50.892;5.740;2023-09-12T02:32:33;19.50;;;11.77;;
5052;SDS011;2545;50.892;5.740;2023-09-12T02:34:58;16.00;;;10.00;;
5052;SDS011;2545;50.892;5.740;2023-09-12T02:37:25;16.60;;;10.80;;
5052;SDS011;2545;50.892;5.740;2023-09-12T02:39:50;13.73;;;10.00;;
5052;SDS011;2545;50.892;5.740;2023-09-12T02:42:16;15.23;;;10.03;;
5052;SDS011;2545;50.892;5.740;2023-09-12T02:44:41;13.30;;;9.63;;
5052;SDS011;2545;50.892;5.740;2023-09-12T02:47:06;13.00;;;8.77;;
5052;SDS011;2545;50.892;5.740;2023-09-12T02:49:32;14.00;;;9.50;;
5052;SDS011;2545;50.892;5.740;2023-09-12T02:51:57;17.30;;;10.20;;
5052;SDS011;2545;50.892;5.740;2023-09-12T02:54:22;19.10;;;11.00;;
5052;SDS011;2545;50.892;5.740;2023-09-12T02:56:48;18.63;;;11.43;;
5052;SDS011;2545;50.892;5.740;2023-09-12T02:59:13;17.03;;;12.53;;
5052;SDS011;2545;50.892;5.740;2023-09-12T03:01:39;13.63;;;10.37;;
5052;SDS011;2545;50.892;5.740;2023-09-12T03:04:04;21.00;;;10.90;;
5052;SDS011;2545;50.892;5.740;2023-09-12T03:06:29;20.33;;;10.97;;
5052;SDS011;2545;50.892;5.740;2023-09-12T03:08:55;20.90;;;11.67;;
5052;SDS011;2545;50.892;5.740;2023-09-12T03:11:21;19.63;;;12.50;;
5052;SDS011;2545;50.892;5.740;2023-09-12T03:13:46;21.60;;;10.03;;
5052;SDS011;2545;50.892;5.740;2023-09-12T03:16:12;22.67;;;10.17;;
5052;SDS011;2545;50.892;5.740;2023-09-12T03:18:38;15.40;;;10.73;;
5052;SDS011;2545;50.892;5.740;2023-09-12T03:21:03;24.47;;;10.47;;
5052;SDS011;2545;50.892;5.740;2023-09-12T03:23:29;12.10;;;9.77;;
5052;SDS011;2545;50.892;5.740;2023-09-12T03:25:54;12.30;;;9.40;;
5052;SDS011;2545;50.892;5.740;2023-09-12T03:28:20;17.53;;;9.93;;
5052;SDS011;2545;50.892;5.740;2023-09-12T03:30:45;14.93;;;10.03;;
5052;SDS011;2545;50.892;5.740;2023-09-12T03:33:10;14.60;;;10.23;;
5052;SDS011;2545;50.892;5.740;2023-09-12T03:35:36;15.40;;;10.03;;
5052;SDS011;2545;50.892;5.740;2023-09-12T03:38:01;16.50;;;10.47;;
5052;SDS011;2545;50.892;5.740;2023-09-12T03:40:30;18.67;;;10.13;;
5052;SDS011;2545;50.892;5.740;2023-09-12T03:42:56;23.40;;;10.23;;
5052;SDS011;2545;50.892;5.740;2023-09-12T03:45:21;14.13;;;10.50;;
5052;SDS011;2545;50.892;5.740;2023-09-12T03:47:47;18.47;;;9.97;;
5052;SDS011;2545;50.892;5.740;2023-09-12T03:50:12;19.37;;;11.90;;
5052;SDS011;2545;50.892;5.740;2023-09-12T03:52:38;16.33;;;10.47;;
5052;SDS011;2545;50.892;5.740;2023-09-12T03:55:04;16.90;;;10.27;;
5052;SDS011;2545;50.892;5.740;2023-09-12T03:57:30;17.80;;;11.90;;
5052;SDS011;2545;50.892;5.740;2023-09-12T03:59:55;22.30;;;13.30;;
5052;SDS011;2545;50.892;5.740;2023-09-12T04:02:20;17.23;;;12.70;;
5052;SDS011;2545;50.892;5.740;2023-09-12T04:04:45;22.27;;;13.23;;
5052;SDS011;2545;50.892;5.740;2023-09-12T04:07:11;18.60;;;12.07;;
5052;SDS011;2545;50.892;5.740;2023-09-12T04:09:36;22.20;;;12.90;;
5052;SDS011;2545;50.892;5.740;2023-09-12T04:12:02;20.57;;;12.00;;
5052;SDS011;2545;50.892;5.740;2023-09-12T04:14:27;23.40;;;13.07;;
5052;SDS011;2545;50.892;5.740;2023-09-12T04:16:53;22.87;;;14.30;;
5052;SDS011;2545;50.892;5.740;2023-09-12T04:19:18;21.63;;;12.20;;
5052;SDS011;2545;50.892;5.740;2023-09-12T04:21:43;21.67;;;12.73;;
5052;SDS011;2545;50.892;5.740;2023-09-12T04:24:08;21.63;;;14.13;;
5052;SDS011;2545;50.892;5.740;2023-09-12T04:26:34;20.40;;;13.80;;
5052;SDS011;2545;50.892;5.740;2023-09-12T04:28:59;23.63;;;15.67;;
5052;SDS011;2545;50.892;5.740;2023-09-12T04:31:25;27.80;;;14.20;;
5052;SDS011;2545;50.892;5.740;2023-09-12T04:33:51;30.03;;;14.80;;
5052;SDS011;2545;50.892;5.740;2023-09-12T04:36:17;23.40;;;14.23;;
5052;SDS011;2545;50.892;5.740;2023-09-12T04:38:43;20.67;;;14.30;;
5052;SDS011;2545;50.892;5.740;2023-09-12T04:41:08;18.67;;;14.50;;
5052;SDS011;2545;50.892;5.740;2023-09-12T04:43:34;17.70;;;13.30;;
5052;SDS011;2545;50.892;5.740;2023-09-12T04:46:00;23.10;;;14.53;;
5052;SDS011;2545;50.892;5.740;2023-09-12T04:48:25;20.77;;;14.80;;
5052;SDS011;2545;50.892;5.740;2023-09-12T04:50:51;25.60;;;15.73;;
5052;SDS011;2545;50.892;5.740;2023-09-12T04:53:16;25.33;;;15.23;;
5052;SDS011;2545;50.892;5.740;2023-09-12T04:55:41;27.13;;;15.17;;
5052;SDS011;2545;50.892;5.740;2023-09-12T04:58:07;22.50;;;15.10;;
5052;SDS011;2545;50.892;5.740;2023-09-12T05:00:32;22.83;;;15.43;;
5052;SDS011;2545;50.892;5.740;2023-09-12T05:02:58;25.83;;;15.00;;
5052;SDS011;2545;50.892;5.740;2023-09-12T05:05:23;18.70;;;14.07;;
5052;SDS011;2545;50.892;5.740;2023-09-12T05:07:49;23.03;;;14.00;;
5052;SDS011;2545;50.892;5.740;2023-09-12T05:10:16;22.80;;;14.20;;
5052;SDS011;2545;50.892;5.740;2023-09-12T05:12:41;29.40;;;14.20;;
5052;SDS011;2545;50.892;5.740;2023-09-12T05:15:07;21.53;;;13.90;;
5052;SDS011;2545;50.892;5.740;2023-09-12T05:17:32;25.47;;;15.33;;
5052;SDS011;2545;50.892;5.740;2023-09-12T05:19:58;25.07;;;14.30;;
5052;SDS011;2545;50.892;5.740;2023-09-12T05:22:23;24.30;;;13.23;;
5052;SDS011;2545;50.892;5.740;2023-09-12T05:24:48;21.37;;;14.97;;
5052;SDS011;2545;50.892;5.740;2023-09-12T05:27:14;24.07;;;14.30;;
5052;SDS011;2545;50.892;5.740;2023-09-12T05:29:40;29.00;;;15.23;;
5052;SDS011;2545;50.892;5.740;2023-09-12T05:32:05;19.97;;;14.67;;
5052;SDS011;2545;50.892;5.740;2023-09-12T05:34:31;21.13;;;16.17;;
5052;SDS011;2545;50.892;5.740;2023-09-12T05:36:56;25.63;;;16.30;;
5052;SDS011;2545;50.892;5.740;2023-09-12T05:39:22;26.87;;;16.43;;
5052;SDS011;2545;50.892;5.740;2023-09-12T05:41:48;31.60;;;18.00;;
5052;SDS011;2545;50.892;5.740;2023-09-12T05:44:14;25.27;;;17.27;;
5052;SDS011;2545;50.892;5.740;2023-09-12T05:46:46;22.50;;;15.40;;
5052;SDS011;2545;50.892;5.740;2023-09-12T05:49:12;22.17;;;14.67;;
5052;SDS011;2545;50.892;5.740;2023-09-12T05:51:38;22.63;;;15.50;;
5052;SDS011;2545;50.892;5.740;2023-09-12T05:54:04;32.13;;;16.00;;
5052;SDS011;2545;50.892;5.740;2023-09-12T05:56:29;23.47;;;15.93;;
5052;SDS011;2545;50.892;5.740;2023-09-12T05:58:55;21.40;;;16.40;;
5052;SDS011;2545;50.892;5.740;2023-09-12T06:01:20;24.93;;;16.77;;
5052;SDS011;2545;50.892;5.740;2023-09-12T06:03:45;31.73;;;17.67;;
5052;SDS011;2545;50.892;5.740;2023-09-12T06:06:11;32.77;;;17.07;;
5052;SDS011;2545;50.892;5.740;2023-09-12T06:08:37;24.97;;;18.13;;
5052;SDS011;2545;50.892;5.740;2023-09-12T06:11:03;31.90;;;18.27;;
5052;SDS011;2545;50.892;5.740;2023-09-12T06:13:28;25.43;;;17.33;;
5052;SDS011;2545;50.892;5.740;2023-09-12T06:15:54;31.53;;;18.13;;
5052;SDS011;2545;50.892;5.740;2023-09-12T06:18:19;32.07;;;19.70;;
5052;SDS011;2545;50.892;5.740;2023-09-12T06:20:45;25.80;;;18.03;;
5052;SDS011;2545;50.892;5.740;2023-09-12T06:23:10;32.97;;;17.20;;
5052;SDS011;2545;50.892;5.740;2023-09-12T06:25:36;27.73;;;17.83;;
5052;SDS011;2545;50.892;5.740;2023-09-12T06:28:01;25.90;;;16.40;;
5052;SDS011;2545;50.892;5.740;2023-09-12T06:30:26;24.63;;;16.53;;
5052;SDS011;2545;50.892;5.740;2023-09-12T06:32:52;33.80;;;18.50;;
5052;SDS011;2545;50.892;5.740;2023-09-12T06:35:17;36.13;;;17.60;;
5052;SDS011;2545;50.892;5.740;2023-09-12T06:37:43;35.30;;;17.53;;
5052;SDS011;2545;50.892;5.740;2023-09-12T06:40:09;20.63;;;16.40;;
5052;SDS011;2545;50.892;5.740;2023-09-12T06:42:34;27.53;;;16.93;;
5052;SDS011;2545;50.892;5.740;2023-09-12T06:45:00;25.20;;;18.10;;
5052;SDS011;2545;50.892;5.740;2023-09-12T06:47:25;24.17;;;17.67;;
5052;SDS011;2545;50.892;5.740;2023-09-12T06:49:50;23.37;;;16.37;;
5052;SDS011;2545;50.892;5.740;2023-09-12T06:52:16;25.20;;;17.23;;
5052;SDS011;2545;50.892;5.740;2023-09-12T06:54:41;32.40;;;17.43;;
5052;SDS011;2545;50.892;5.740;2023-09-12T06:57:06;27.53;;;17.87;;
5052;SDS011;2545;50.892;5.740;2023-09-12T06:59:32;25.53;;;16.23;;
5052;SDS011;2545;50.892;5.740;2023-09-12T07:01:57;26.37;;;17.70;;
5052;SDS011;2545;50.892;5.740;2023-09-12T07:04:23;21.90;;;15.90;;
5052;SDS011;2545;50.892;5.740;2023-09-12T07:06:49;22.73;;;16.63;;
5052;SDS011;2545;50.892;5.740;2023-09-12T07:09:14;25.60;;;17.53;;
5052;SDS011;2545;50.892;5.740;2023-09-12T07:11:42;23.13;;;16.23;;
5052;SDS011;2545;50.892;5.740;2023-09-12T07:14:11;23.60;;;16.93;;
5052;SDS011;2545;50.892;5.740;2023-09-12T07:16:36;24.30;;;17.90;;
5052;SDS011;2545;50.892;5.740;2023-09-12T07:19:02;25.10;;;17.70;;
5052;SDS011;2545;50.892;5.740;2023-09-12T07:21:28;27.70;;;17.93;;
5052;SDS011;2545;50.892;5.740;2023-09-12T07:23:54;30.93;;;16.67;;
5052;SDS011;2545;50.892;5.740;2023-09-12T07:26:20;23.00;;;16.83;;
5052;SDS011;2545;50.892;5.740;2023-09-12T07:28:45;29.30;;;19.17;;
5052;SDS011;2545;50.892;5.740;2023-09-12T07:31:11;29.10;;;19.10;;
5052;SDS011;2545;50.892;5.740;2023-09-12T07:33:36;26.63;;;19.67;;
5052;SDS011;2545;50.892;5.740;2023-09-12T07:36:01;31.53;;;20.37;;
5052;SDS011;2545;50.892;5.740;2023-09-12T07:38:28;36.07;;;19.10;;
5052;SDS011;2545;50.892;5.740;2023-09-12T07:40:55;28.77;;;19.13;;
5052;SDS011;2545;50.892;5.740;2023-09-12T07:43:21;26.50;;;18.90;;
5052;SDS011;2545;50.892;5.740;2023-09-12T07:45:46;32.50;;;21.40;;
5052;SDS011;2545;50.892;5.740;2023-09-12T07:48:12;28.47;;;18.37;;
5052;SDS011;2545;50.892;5.740;2023-09-12T07:50:37;27.47;;;18.93;;
5052;SDS011;2545;50.892;5.740;2023-09-12T07:53:04;29.63;;;20.13;;
5052;SDS011;2545;50.892;5.740;2023-09-12T07:55:30;32.93;;;22.33;;
5052;SDS011;2545;50.892;5.740;2023-09-12T07:58:00;29.27;;;21.27;;
5052;SDS011;2545;50.892;5.740;2023-09-12T08:00:26;31.00;;;21.17;;
5052;SDS011;2545;50.892;5.740;2023-09-12T08:02:52;26.13;;;19.47;;
5052;SDS011;2545;50.892;5.740;2023-09-12T08:05:17;31.10;;;21.97;;
5052;SDS011;2545;50.892;5.740;2023-09-12T08:07:44;28.67;;;20.50;;
5052;SDS011;2545;50.892;5.740;2023-09-12T08:10:09;31.43;;;19.80;;
5052;SDS011;2545;50.892;5.740;2023-09-12T08:12:36;29.17;;;19.20;;
5052;SDS011;2545;50.892;5.740;2023-09-12T08:15:03;42.27;;;20.10;;
5052;SDS011;2545;50.892;5.740;2023-09-12T08:17:29;31.00;;;20.13;;
5052;SDS011;2545;50.892;5.740;2023-09-12T08:19:55;24.30;;;18.00;;
5052;SDS011;2545;50.892;5.740;2023-09-12T08:22:20;28.07;;;20.00;;
5052;SDS011;2545;50.892;5.740;2023-09-12T08:24:46;25.93;;;19.37;;
5052;SDS011;2545;50.892;5.740;2023-09-12T08:27:11;128.77;;;27.77;;
5052;SDS011;2545;50.892;5.740;2023-09-12T08:29:37;31.20;;;20.50;;
5052;SDS011;2545;50.892;5.740;2023-09-12T08:32:03;34.53;;;20.80;;
5052;SDS011;2545;50.892;5.740;2023-09-12T08:34:28;25.83;;;18.57;;
5052;SDS011;2545;50.892;5.740;2023-09-12T08:36:54;27.03;;;18.70;;
5052;SDS011;2545;50.892;5.740;2023-09-12T08:39:25;25.03;;;19.77;;
5052;SDS011;2545;50.892;5.740;2023-09-12T08:41:52;27.10;;;19.70;;
5052;SDS011;2545;50.892;5.740;2023-09-12T08:44:19;32.03;;;18.53;;
5052;SDS011;2545;50.892;5.740;2023-09-12T08:46:45;30.17;;;19.67;;
5052;SDS011;2545;50.892;5.740;2023-09-12T08:49:11;32.73;;;19.90;;
5052;SDS011;2545;50.892;5.740;2023-09-12T08:51:37;26.07;;;18.43;;
5052;SDS011;2545;50.892;5.740;2023-09-12T08:54:04;29.40;;;18.90;;
5052;SDS011;2545;50.892;5.740;2023-09-12T08:56:31;27.43;;;18.20;;
5052;SDS011;2545;50.892;5.740;2023-09-12T08:58:58;25.27;;;19.23;;
5052;SDS011;2545;50.892;5.740;2023-09-12T09:01:24;23.47;;;17.70;;
5052;SDS011;2545;50.892;5.740;2023-09-12T09:03:52;23.47;;;17.93;;
5052;SDS011;2545;50.892;5.740;2023-09-12T09:06:18;26.13;;;19.60;;
5052;SDS011;2545;50.892;5.740;2023-09-12T09:08:46;26.80;;;18.30;;
5052;SDS011;2545;50.892;5.740;2023-09-12T09:11:13;27.13;;;18.30;;
5052;SDS011;2545;50.892;5.740;2023-09-12T09:13:38;43.93;;;19.93;;
5052;SDS011;2545;50.892;5.740;2023-09-12T09:16:10;30.73;;;20.10;;
5052;SDS011;2545;50.892;5.740;2023-09-12T09:18:50;26.13;;;19.70;;
5052;SDS011;2545;50.892;5.740;2023-09-12T09:21:19;26.13;;;17.93;;
5052;SDS011;2545;50.892;5.740;2023-09-12T09:23:46;27.60;;;21.00;;
5052;SDS011;2545;50.892;5.740;2023-09-12T09:26:12;24.83;;;16.97;;
5052;SDS011;2545;50.892;5.740;2023-09-12T09:28:38;23.97;;;15.73;;
5052;SDS011;2545;50.892;5.740;2023-09-12T09:31:04;27.57;;;16.20;;
5052;SDS011;2545;50.892;5.740;2023-09-12T09:33:37;28.53;;;20.30;;
5052;SDS011;2545;50.892;5.740;2023-09-12T09:36:04;25.53;;;17.87;;
5052;SDS011;2545;50.892;5.740;2023-09-12T09:38:31;17.50;;;13.27;;
5052;SDS011;2545;50.892;5.740;2023-09-12T09:40:56;13.73;;;10.87;;
5052;SDS011;2545;50.892;5.740;2023-09-12T09:43:22;15.63;;;10.30;;
5052;SDS011;2545;50.892;5.740;2023-09-12T09:45:48;12.17;;;9.73;;
5052;SDS011;2545;50.892;5.740;2023-09-12T09:48:23;15.03;;;11.67;;
5052;SDS011;2545;50.892;5.740;2023-09-12T09:50:52;18.10;;;13.97;;
5052;SDS011;2545;50.892;5.740;2023-09-12T09:53:22;13.97;;;11.03;;
5052;SDS011;2545;50.892;5.740;2023-09-12T09:55:51;14.80;;;12.00;;
5052;SDS011;2545;50.892;5.740;2023-09-12T09:58:16;14.90;;;10.03;;
5052;SDS011;2545;50.892;5.740;2023-09-12T10:00:42;18.40;;;10.33;;
5052;SDS011;2545;50.892;5.740;2023-09-12T10:03:08;14.40;;;10.50;;
5052;SDS011;2545;50.892;5.740;2023-09-12T10:05:36;12.30;;;9.07;;
5052;SDS011;2545;50.892;5.740;2023-09-12T10:08:03;12.20;;;7.90;;
5052;SDS011;2545;50.892;5.740;2023-09-12T10:10:31;10.47;;;9.00;;
5052;SDS011;2545;50.892;5.740;2023-09-12T10:12:59;9.80;;;8.80;;
5052;SDS011;2545;50.892;5.740;2023-09-12T10:15:29;10.60;;;9.40;;
5052;SDS011;2545;50.892;5.740;2023-09-12T10:17:56;12.13;;;10.30;;
5052;SDS011;2545;50.892;5.740;2023-09-12T10:20:25;10.73;;;8.03;;
5052;SDS011;2545;50.892;5.740;2023-09-12T10:23:46;21.10;;;16.63;;
5052;SDS011;2545;50.892;5.740;2023-09-12T10:26:08;10.80;;;9.07;;
5052;SDS011;2545;50.892;5.740;2023-09-12T10:28:36;14.87;;;10.13;;
5052;SDS011;2545;50.892;5.740;2023-09-12T10:31:03;10.60;;;8.53;;
5052;SDS011;2545;50.892;5.740;2023-09-12T10:33:30;12.13;;;7.70;;
5052;SDS011;2545;50.892;5.740;2023-09-12T10:35:56;11.47;;;9.67;;
5052;SDS011;2545;50.892;5.740;2023-09-12T10:38:23;8.73;;;7.63;;
5052;SDS011;2545;50.892;5.740;2023-09-12T10:40:51;8.80;;;7.18;;
5052;SDS011;2545;50.892;5.740;2023-09-12T10:43:20;10.25;;;7.68;;
5052;SDS011;2545;50.892;5.740;2023-09-12T10:45:46;11.05;;;7.63;;
5052;SDS011;2545;50.892;5.740;2023-09-12T10:48:13;8.07;;;6.80;;
5052;SDS011;2545;50.892;5.740;2023-09-12T10:50:39;8.85;;;6.85;;
5052;SDS011;2545;50.892;5.740;2023-09-12T10:53:11;11.57;;;6.70;;
5052;SDS011;2545;50.892;5.740;2023-09-12T10:55:38;9.15;;;6.50;;
5052;SDS011;2545;50.892;5.740;2023-09-12T10:58:04;10.00;;;6.93;;
5052;SDS011;2545;50.892;5.740;2023-09-12T11:00:31;8.10;;;7.18;;
5052;SDS011;2545;50.892;5.740;2023-09-12T11:03:00;8.90;;;6.85;;
5052;SDS011;2545;50.892;5.740;2023-09-12T11:05:54;11.48;;;7.35;;
5052;SDS011;2545;50.892;5.740;2023-09-12T11:08:21;10.38;;;7.75;;
5052;SDS011;2545;50.892;5.740;2023-09-12T11:13:45;7.70;;;6.82;;
5052;SDS011;2545;50.892;5.740;2023-09-12T11:16:15;8.15;;;7.30;;
5052;SDS011;2545;50.892;5.740;2023-09-12T11:21:44;10.85;;;7.88;;
5052;SDS011;2545;50.892;5.740;2023-09-12T11:24:10;9.00;;;6.97;;
5052;SDS011;2545;50.892;5.740;2023-09-12T11:26:51;7.97;;;5.65;;
5052;SDS011;2545;50.892;5.740;2023-09-12T11:29:19;8.80;;;6.47;;
5052;SDS011;2545;50.892;5.740;2023-09-12T11:31:58;6.10;;;4.38;;
5052;SDS011;2545;50.892;5.740;2023-09-12T11:34:25;6.95;;;6.25;;
5052;SDS011;2545;50.892;5.740;2023-09-12T11:36:54;6.53;;;5.82;;
5052;SDS011;2545;50.892;5.740;2023-09-12T11:39:25;11.80;;;10.60;;
5052;SDS011;2545;50.892;5.740;2023-09-12T11:41:53;10.18;;;7.53;;
5052;SDS011;2545;50.892;5.740;2023-09-12T11:44:20;9.10;;;6.72;;
5052;SDS011;2545;50.892;5.740;2023-09-12T11:46:47;9.15;;;6.20;;
5052;SDS011;2545;50.892;5.740;2023-09-12T11:49:14;6.00;;;5.45;;
5052;SDS011;2545;50.892;5.740;2023-09-12T11:51:49;5.57;;;4.93;;
5052;SDS011;2545;50.892;5.740;2023-09-12T11:54:19;5.13;;;4.68;;
5052;SDS011;2545;50.892;5.740;2023-09-12T11:56:51;6.47;;;5.28;;
5052;SDS011;2545;50.892;5.740;2023-09-12T11:59:28;5.30;;;4.90;;
5052;SDS011;2545;50.892;5.740;2023-09-12T12:01:54;5.38;;;4.88;;
5052;SDS011;2545;50.892;5.740;2023-09-12T12:04:24;6.35;;;4.97;;
5052;SDS011;2545;50.892;5.740;2023-09-12T12:06:50;6.03;;;3.88;;
5052;SDS011;2545;50.892;5.740;2023-09-12T12:09:17;6.65;;;4.85;;
5052;SDS011;2545;50.892;5.740;2023-09-12T12:11:44;4.45;;;4.05;;
5052;SDS011;2545;50.892;5.740;2023-09-12T12:14:12;7.43;;;4.55;;
5052;SDS011;2545;50.892;5.740;2023-09-12T12:16:40;4.47;;;4.07;;
5052;SDS011;2545;50.892;5.740;2023-09-12T12:19:06;3.40;;;3.20;;
5052;SDS011;2545;50.892;5.740;2023-09-12T12:21:31;5.60;;;4.28;;
5052;SDS011;2545;50.892;5.740;2023-09-12T12:23:58;4.82;;;4.13;;
5052;SDS011;2545;50.892;5.740;2023-09-12T12:26:25;4.88;;;3.70;;
5052;SDS011;2545;50.892;5.740;2023-09-12T12:28:51;4.40;;;4.10;;
5052;SDS011;2545;50.892;5.740;2023-09-12T12:31:17;4.20;;;3.88;;
5052;SDS011;2545;50.892;5.740;2023-09-12T12:33:49;4.88;;;3.80;;
5052;SDS011;2545;50.892;5.740;2023-09-12T12:36:14;5.38;;;4.15;;
5052;SDS011;2545;50.892;5.740;2023-09-12T12:38:40;6.13;;;4.10;;
5052;SDS011;2545;50.892;5.740;2023-09-12T12:41:08;5.97;;;5.25;;
5052;SDS011;2545;50.892;5.740;2023-09-12T12:43:34;6.00;;;4.55;;
5052;SDS011;2545;50.892;5.740;2023-09-12T12:45:59;5.25;;;4.72;;
5052;SDS011;2545;50.892;5.740;2023-09-12T12:48:31;8.93;;;4.60;;
5052;SDS011;2545;50.892;5.740;2023-09-12T12:50:58;23.52;;;10.77;;
5052;SDS011;2545;50.892;5.740;2023-09-12T12:56:05;8.65;;;3.72;;
5052;SDS011;2545;50.892;5.740;2023-09-12T12:58:30;5.13;;;4.63;;
5052;SDS011;2545;50.892;5.740;2023-09-12T13:00:56;5.35;;;3.97;;
5052;SDS011;2545;50.892;5.740;2023-09-12T13:03:21;6.85;;;5.35;;
5052;SDS011;2545;50.892;5.740;2023-09-12T13:05:46;6.07;;;5.47;;
5052;SDS011;2545;50.892;5.740;2023-09-12T13:08:12;6.47;;;4.35;;
5052;SDS011;2545;50.892;5.740;2023-09-12T13:10:37;5.47;;;4.25;;
5052;SDS011;2545;50.892;5.740;2023-09-12T13:13:03;6.05;;;5.38;;
5052;SDS011;2545;50.892;5.740;2023-09-12T13:15:29;4.22;;;3.83;;
5052;SDS011;2545;50.892;5.740;2023-09-12T13:17:54;3.47;;;3.17;;
5052;SDS011;2545;50.892;5.740;2023-09-12T13:20:20;3.70;;;3.38;;
5052;SDS011;2545;50.892;5.740;2023-09-12T13:22:45;4.60;;;4.20;;
5052;SDS011;2545;50.892;5.740;2023-09-12T13:25:11;5.35;;;4.00;;
5052;SDS011;2545;50.892;5.740;2023-09-12T13:27:36;5.03;;;4.63;;
5052;SDS011;2545;50.892;5.740;2023-09-12T13:30:02;5.15;;;3.85;;
5052;SDS011;2545;50.892;5.740;2023-09-12T13:32:29;4.13;;;3.63;;
5052;SDS011;2545;50.892;5.740;2023-09-12T13:34:54;5.65;;;3.97;;
5052;SDS011;2545;50.892;5.740;2023-09-12T13:37:20;4.47;;;4.05;;
5052;SDS011;2545;50.892;5.740;2023-09-12T13:39:46;6.07;;;5.25;;
5052;SDS011;2545;50.892;5.740;2023-09-12T13:42:14;9.77;;;5.47;;
5052;SDS011;2545;50.892;5.740;2023-09-12T13:44:48;5.65;;;4.88;;
5052;SDS011;2545;50.892;5.740;2023-09-12T13:47:14;12.82;;;6.38;;
5052;SDS011;2545;50.892;5.740;2023-09-12T13:49:47;6.05;;;5.43;;
5052;SDS011;2545;50.892;5.740;2023-09-12T13:52:12;7.07;;;5.65;;
5052;SDS011;2545;50.892;5.740;2023-09-12T13:54:39;9.27;;;5.90;;
5052;SDS011;2545;50.892;5.740;2023-09-12T13:57:04;5.63;;;5.05;;
5052;SDS011;2545;50.892;5.740;2023-09-12T13:59:30;5.68;;;5.15;;
5052;SDS011;2545;50.892;5.740;2023-09-12T14:01:55;10.05;;;6.65;;
5052;SDS011;2545;50.892;5.740;2023-09-12T14:04:20;6.47;;;5.15;;
5052;SDS011;2545;50.892;5.740;2023-09-12T14:06:46;7.47;;;5.63;;
5052;SDS011;2545;50.892;5.740;2023-09-12T14:09:11;6.15;;;5.13;;
5052;SDS011;2545;50.892;5.740;2023-09-12T14:11:36;7.53;;;5.10;;
5052;SDS011;2545;50.892;5.740;2023-09-12T14:14:03;9.15;;;5.70;;
5052;SDS011;2545;50.892;5.740;2023-09-12T14:16:29;9.15;;;5.95;;
5052;SDS011;2545;50.892;5.740;2023-09-12T14:18:55;7.93;;;6.68;;
5052;SDS011;2545;50.892;5.740;2023-09-12T14:21:20;11.95;;;7.13;;
5052;SDS011;2545;50.892;5.740;2023-09-12T14:23:46;9.18;;;6.53;;
5052;SDS011;2545;50.892;5.740;2023-09-12T14:26:11;7.40;;;5.93;;
5052;SDS011;2545;50.892;5.740;2023-09-12T14:28:37;6.60;;;5.60;;
5052;SDS011;2545;50.892;5.740;2023-09-12T14:31:03;7.20;;;6.50;;
5052;SDS011;2545;50.892;5.740;2023-09-12T14:33:30;10.43;;;6.10;;
5052;SDS011;2545;50.892;5.740;2023-09-12T14:35:55;7.57;;;5.80;;
5052;SDS011;2545;50.892;5.740;2023-09-12T14:38:21;9.48;;;6.03;;
5052;SDS011;2545;50.892;5.740;2023-09-12T14:40:46;7.10;;;5.93;;
5052;SDS011;2545;50.892;5.740;2023-09-12T14:43:12;7.00;;;5.37;;
5052;SDS011;2545;50.892;5.740;2023-09-12T14:45:37;10.15;;;6.45;;
5052;SDS011;2545;50.892;5.740;2023-09-12T14:48:03;6.47;;;5.63;;
5052;SDS011;2545;50.892;5.740;2023-09-12T14:50:29;8.23;;;6.20;;
5052;SDS011;2545;50.892;5.740;2023-09-12T14:52:55;7.87;;;7.17;;
5052;SDS011;2545;50.892;5.740;2023-09-12T14:55:21;6.97;;;6.27;;
5052;SDS011;2545;50.892;5.740;2023-09-12T14:57:47;12.03;;;8.33;;
5052;SDS011;2545;50.892;5.740;2023-09-12T15:00:12;10.57;;;7.03;;
5052;SDS011;2545;50.892;5.740;2023-09-12T15:02:38;9.57;;;6.90;;
5052;SDS011;2545;50.892;5.740;2023-09-12T15:05:04;8.10;;;6.90;;